createdAt,value
2023-04-28T00:02:55.191Z,6.50
2023-04-28T00:05:57.651Z,6.37
2023-04-28T00:08:59.477Z,6.70
2023-04-28T00:12:02.610Z,6.30
2023-04-28T00:15:04.627Z,6.77
2023-04-28T00:18:06.422Z,6.47
2023-04-28T00:21:08.639Z,7.00
2023-04-28T00:24:10.415Z,7.10
2023-04-28T00:27:12.071Z,6.63
2023-04-28T00:30:13.955Z,6.50
2023-04-28T00:33:15.832Z,7.20
2023-04-28T00:36:17.535Z,6.80
2023-04-28T00:39:19.213Z,6.53
2023-04-28T00:42:21.426Z,7.07
2023-04-28T00:45:23.053Z,7.00
2023-04-28T00:48:24.994Z,7.20
2023-04-28T00:51:28.899Z,6.53
2023-04-28T00:54:30.845Z,7.13
2023-04-28T00:57:32.544Z,7.70
2023-04-28T01:00:35.006Z,7.30
2023-04-28T01:03:41.435Z,6.70
2023-04-28T01:07:21.531Z,7.77
2023-04-28T01:10:23.297Z,7.40
2023-04-28T01:13:25.137Z,7.17
2023-04-28T01:16:27.655Z,6.80
2023-04-28T01:19:29.738Z,7.27
2023-04-28T01:22:31.692Z,7.40
2023-04-28T01:25:33.344Z,7.30
2023-04-28T01:28:34.987Z,7.43
2023-04-28T01:31:36.806Z,7.70
2023-04-28T01:34:38.545Z,7.70
2023-04-28T01:37:40.262Z,7.57
2023-04-28T01:40:42.677Z,8.13
2023-04-28T01:43:44.428Z,7.37
2023-04-28T01:46:46.094Z,7.20
2023-04-28T01:49:49.949Z,7.10
2023-04-28T01:52:51.631Z,7.57
2023-04-28T01:55:54.118Z,7.93
2023-04-28T01:58:55.795Z,8.03
2023-04-28T02:01:57.548Z,7.43
2023-04-28T02:04:59.404Z,7.47
2023-04-28T02:08:01.141Z,7.60
2023-04-28T02:11:03.972Z,7.37
2023-04-28T02:14:05.608Z,7.43
2023-04-28T02:17:07.296Z,7.20
2023-04-28T02:20:09.455Z,7.10
2023-04-28T02:23:11.122Z,7.43
2023-04-28T02:26:12.830Z,8.13
2023-04-28T02:29:14.610Z,7.20
2023-04-28T02:32:16.279Z,7.40
2023-04-28T02:35:18.120Z,7.33
2023-04-28T02:38:19.770Z,7.37
2023-04-28T02:41:21.422Z,6.80
2023-04-28T02:44:23.082Z,8.00
2023-04-28T02:47:24.834Z,7.50
2023-04-28T02:50:26.446Z,7.70
2023-04-28T02:53:28.503Z,7.73
2023-04-28T02:56:30.697Z,7.77
2023-04-28T02:59:32.492Z,7.63
2023-04-28T03:02:34.197Z,7.97
2023-04-28T03:05:36.494Z,7.70
2023-04-28T03:08:38.218Z,7.90
2023-04-28T03:11:39.903Z,7.80
2023-04-28T03:14:41.637Z,8.13
2023-04-28T03:17:43.383Z,7.67
2023-04-28T03:20:45.211Z,8.57
2023-04-28T03:23:46.836Z,8.20
2023-04-28T03:26:48.720Z,8.70
2023-04-28T03:29:50.362Z,8.30
2023-04-28T03:32:52.074Z,8.00
2023-04-28T03:35:54.275Z,8.53
2023-04-28T03:38:55.934Z,8.10
2023-04-28T03:41:57.923Z,8.43
2023-04-28T03:44:59.587Z,8.33
2023-04-28T03:48:01.244Z,8.43
2023-04-28T03:51:03.583Z,8.63
2023-04-28T03:54:05.273Z,7.90
2023-04-28T03:57:07.266Z,9.63
2023-04-28T04:00:10.011Z,8.83
2023-04-28T04:03:12.147Z,8.50
2023-04-28T04:06:14.132Z,8.80
2023-04-28T04:09:15.914Z,8.60
2023-04-28T04:12:17.629Z,8.10
2023-04-28T04:15:19.279Z,8.63
2023-04-28T04:18:21.204Z,8.10
2023-04-28T04:21:22.890Z,7.50
2023-04-28T04:24:24.638Z,8.50
2023-04-28T04:27:26.348Z,8.87
2023-04-28T04:30:27.993Z,8.57
2023-04-28T04:33:29.663Z,8.47
2023-04-28T04:36:32.856Z,8.13
2023-04-28T04:39:34.504Z,9.03
2023-04-28T04:42:36.229Z,8.97
2023-04-28T04:45:38.095Z,8.67
2023-04-28T04:48:39.862Z,8.30
2023-04-28T04:51:41.604Z,8.80
2023-04-28T04:54:43.333Z,8.90
2023-04-28T04:57:45.068Z,8.20
2023-04-28T05:00:46.723Z,9.73
2023-04-28T05:03:48.549Z,8.93
2023-04-28T05:06:50.326Z,8.90
2023-04-28T05:09:52.158Z,9.60
2023-04-28T05:12:54.226Z,8.87
2023-04-28T05:15:56.107Z,7.97
2023-04-28T05:18:57.864Z,11.97
2023-04-28T05:22:00.936Z,9.10
2023-04-28T05:25:02.826Z,9.23
2023-04-28T05:28:07.536Z,8.83
2023-04-28T05:31:09.355Z,9.83
2023-04-28T05:34:11.091Z,8.70
2023-04-28T05:37:12.753Z,9.70
2023-04-28T05:40:14.687Z,9.60
2023-04-28T05:43:16.390Z,9.23
2023-04-28T05:46:30.016Z,8.60
2023-04-28T05:49:32.550Z,9.27
2023-04-28T05:52:34.194Z,9.07
2023-04-28T05:55:36.543Z,10.03
2023-04-28T05:58:39.124Z,9.70
2023-04-28T06:01:41.088Z,11.60
2023-04-28T06:04:44.331Z,9.97
2023-04-28T06:07:48.239Z,10.37
2023-04-28T06:10:51.404Z,9.87
2023-04-28T06:13:53.009Z,9.47
2023-04-28T06:16:54.743Z,9.97
2023-04-28T06:19:56.901Z,9.60
2023-04-28T06:22:58.756Z,11.03
2023-04-28T06:26:00.708Z,10.80
2023-04-28T06:29:02.662Z,10.60
2023-04-28T06:32:04.658Z,10.97
2023-04-28T06:35:06.887Z,10.83
2023-04-28T06:38:08.612Z,10.97
2023-04-28T06:41:11.424Z,11.07
2023-04-28T06:44:13.331Z,11.33
2023-04-28T06:47:15.176Z,13.40
2023-04-28T06:50:17.011Z,10.73
2023-04-28T06:53:18.677Z,11.73
2023-04-28T06:56:20.620Z,11.10
2023-04-28T06:59:22.324Z,10.77
2023-04-28T07:02:24.056Z,11.20
2023-04-28T07:05:25.887Z,11.37
2023-04-28T07:12:54.711Z,10.40
2023-04-28T07:15:56.590Z,10.90
2023-04-28T07:18:58.443Z,11.00
2023-04-28T07:22:00.116Z,10.93
2023-04-28T07:25:01.817Z,10.60
2023-04-28T07:28:05.684Z,10.80
2023-04-28T07:31:07.324Z,12.13
2023-04-28T07:34:08.988Z,10.83
2023-04-28T07:37:11.888Z,10.87
2023-04-28T07:40:13.632Z,10.93
2023-04-28T07:43:15.449Z,15.60
2023-04-28T07:46:17.138Z,13.93
2023-04-28T07:49:18.878Z,10.63
2023-04-28T07:52:20.816Z,11.20
2023-04-28T07:55:22.601Z,11.10
2023-04-28T07:58:24.302Z,12.07
2023-04-28T08:01:26.176Z,14.67
2023-04-28T08:04:28.090Z,11.10
2023-04-28T08:07:29.984Z,12.33
2023-04-28T08:10:31.691Z,10.27
2023-04-28T08:13:33.600Z,10.47
2023-04-28T08:16:38.305Z,10.40
2023-04-28T08:19:40.140Z,11.50
2023-04-28T08:22:42.260Z,11.30
2023-04-28T08:25:57.846Z,11.57
2023-04-28T08:29:01.907Z,10.47
2023-04-28T08:32:04.839Z,11.30
2023-04-28T08:35:07.110Z,9.80
2023-04-28T08:38:13.832Z,9.67
2023-04-28T08:41:16.715Z,12.30
2023-04-28T08:44:28.653Z,9.17
2023-04-28T08:50:44.083Z,9.37
2023-04-28T08:54:14.847Z,10.53
2023-04-28T08:57:13.647Z,9.63
2023-04-28T09:00:15.634Z,11.13
2023-04-28T09:03:17.398Z,12.67
2023-04-28T09:06:19.195Z,10.27
2023-04-28T09:09:34.214Z,9.70
2023-04-28T09:12:38.680Z,10.67
2023-04-28T09:15:41.422Z,9.87
2023-04-28T09:18:57.157Z,11.20
2023-04-28T09:21:58.996Z,10.20
2023-04-28T09:25:11.433Z,10.30
2023-04-28T09:28:22.891Z,11.07
2023-04-28T09:31:27.999Z,10.70
2023-04-28T09:34:49.797Z,11.43
2023-04-28T09:37:58.956Z,9.90
2023-04-28T09:41:02.523Z,10.90
2023-04-28T09:44:19.206Z,10.23
2023-04-28T09:47:25.403Z,11.60
2023-04-28T09:50:27.524Z,11.50
2023-04-28T09:53:30.361Z,11.70
2023-04-28T09:56:35.075Z,11.33
2023-04-28T09:59:37.418Z,11.93
2023-04-28T10:05:45.341Z,11.13
2023-04-28T10:13:42.860Z,10.07
2023-04-28T10:16:45.119Z,10.80
2023-04-28T10:19:47.999Z,10.47
2023-04-28T10:23:09.895Z,10.77
2023-04-28T10:26:14.785Z,10.43
2023-04-28T10:29:18.266Z,10.73
2023-04-28T10:32:28.550Z,11.13
2023-04-28T10:35:36.173Z,10.50
2023-04-28T10:39:16.762Z,9.77
2023-04-28T10:42:52.718Z,13.07
2023-04-28T10:45:56.601Z,9.83
2023-04-28T10:48:59.080Z,9.80
2023-04-28T10:52:00.936Z,10.10
2023-04-28T10:55:39.832Z,10.73
2023-04-28T10:58:46.278Z,10.30
2023-04-28T11:06:35.397Z,10.60
2023-04-28T11:09:37.058Z,10.83
2023-04-28T11:13:17.373Z,9.73
2023-04-28T11:16:24.764Z,11.17
2023-04-28T11:19:28.681Z,10.10
2023-04-28T11:22:31.276Z,11.67
2023-04-28T11:25:56.057Z,11.00
2023-04-28T11:29:02.814Z,10.93
2023-04-28T11:32:06.210Z,11.47
2023-04-28T11:35:09.837Z,11.80
2023-04-28T11:38:11.581Z,11.30
2023-04-28T11:41:13.261Z,11.73
2023-04-28T11:44:17.555Z,11.60
2023-04-28T11:47:33.612Z,12.50
2023-04-28T11:50:38.863Z,12.23
2023-04-28T11:53:44.488Z,12.07
2023-04-28T11:56:46.671Z,11.73
2023-04-28T11:59:49.718Z,11.90
2023-04-28T12:02:52.212Z,13.83
2023-04-28T12:05:54.117Z,13.27
2023-04-28T12:08:56.001Z,14.07
2023-04-28T12:12:02.511Z,13.03
2023-04-28T12:15:06.208Z,13.33
2023-04-28T12:18:16.309Z,13.37
2023-04-28T12:21:21.995Z,12.30
2023-04-28T12:24:25.981Z,13.00
2023-04-28T12:27:29.027Z,13.10
2023-04-28T12:30:33.279Z,13.17
2023-04-28T12:33:38.700Z,13.50
2023-04-28T12:36:44.870Z,13.03
2023-04-28T12:39:46.696Z,13.63
2023-04-28T12:42:48.580Z,14.07
2023-04-28T12:45:51.097Z,14.20
2023-04-28T12:48:53.307Z,14.50
2023-04-28T12:51:55.020Z,13.67
2023-04-28T12:54:56.672Z,13.73
2023-04-28T12:57:59.456Z,13.27
2023-04-28T13:01:01.235Z,14.30
2023-04-28T13:04:03.152Z,13.70
2023-04-28T13:07:07.300Z,12.80
2023-04-28T13:10:22.366Z,12.37
2023-04-28T13:13:24.029Z,12.20
2023-04-28T13:16:29.280Z,12.13
2023-04-28T13:19:33.666Z,10.77
2023-04-28T13:22:35.858Z,11.63
2023-04-28T13:25:37.555Z,10.70
2023-04-28T13:28:39.366Z,11.70
2023-04-28T13:31:41.683Z,10.97
2023-04-28T13:34:44.169Z,11.13
2023-04-28T13:37:46.565Z,9.70
2023-04-28T13:40:48.266Z,10.27
2023-04-28T13:43:50.020Z,12.47
2023-04-28T13:46:52.999Z,10.17
2023-04-28T13:49:54.751Z,10.00
2023-04-28T13:52:56.383Z,10.10
2023-04-28T13:55:58.551Z,10.43
2023-04-28T13:59:00.297Z,12.03
2023-04-28T14:02:01.934Z,10.23
2023-04-28T14:05:03.691Z,9.80
2023-04-28T14:08:06.265Z,10.73
2023-04-28T14:11:08.299Z,10.33
2023-04-28T14:14:10.005Z,10.23
2023-04-28T14:17:12.480Z,10.77
2023-04-28T14:20:14.491Z,11.03
2023-04-28T14:23:16.479Z,10.47
2023-04-28T14:26:18.712Z,10.73
2023-04-28T14:29:20.414Z,10.60
2023-04-28T14:32:22.103Z,10.40
2023-04-28T14:35:23.937Z,11.20
2023-04-28T14:38:25.841Z,10.87
2023-04-28T14:41:27.585Z,10.27
2023-04-28T14:44:29.225Z,10.47
2023-04-28T14:47:31.413Z,11.10
2023-04-28T14:50:33.162Z,10.13
2023-04-28T14:53:34.923Z,10.63
2023-04-28T14:56:36.587Z,10.70
2023-04-28T14:59:38.317Z,10.37
2023-04-28T15:02:40.261Z,10.93
2023-04-28T15:05:42.021Z,10.97
2023-04-28T15:08:43.904Z,11.33
2023-04-28T15:11:45.606Z,10.27
2023-04-28T15:14:47.666Z,10.40
2023-04-28T15:17:49.443Z,10.33
2023-04-28T15:20:51.513Z,11.00
2023-04-28T15:23:53.202Z,11.07
2023-04-28T15:26:54.911Z,10.90
2023-04-28T15:29:56.585Z,10.07
2023-04-28T15:32:58.319Z,12.87
2023-04-28T15:36:00.012Z,12.70
2023-04-28T15:39:01.692Z,11.27
2023-04-28T15:42:03.953Z,10.83
2023-04-28T15:45:06.562Z,11.07
2023-04-28T15:48:09.544Z,10.73
2023-04-28T15:51:11.510Z,10.93
2023-04-28T15:54:13.157Z,12.97
2023-04-28T15:57:14.814Z,11.20
2023-04-28T16:00:16.620Z,11.47
2023-04-28T16:03:19.121Z,11.27
2023-04-28T16:06:20.966Z,10.63
2023-04-28T16:09:22.868Z,14.87
2023-04-28T16:12:24.567Z,12.80
2023-04-28T16:15:26.294Z,11.40
2023-04-28T16:18:28.024Z,11.83
2023-04-28T16:21:29.853Z,11.13
2023-04-28T16:24:32.390Z,11.00
2023-04-28T16:27:35.100Z,10.47
2023-04-28T16:30:36.818Z,10.90
2023-04-28T16:33:38.529Z,11.17
2023-04-28T16:36:41.149Z,14.77
2023-04-28T16:39:42.948Z,12.27
2023-04-28T16:42:45.189Z,12.73
2023-04-28T16:45:47.133Z,11.73
2023-04-28T16:48:49.197Z,12.57
2023-04-28T16:51:58.694Z,12.90
2023-04-28T16:55:08.010Z,12.67
2023-04-28T16:58:09.686Z,12.73
2023-04-28T17:01:11.658Z,12.27
2023-04-28T17:07:31.651Z,12.40
2023-04-28T17:10:33.397Z,12.07
2023-04-28T17:18:06.134Z,11.50
2023-04-28T17:23:48.900Z,11.40
2023-04-28T17:26:51.048Z,11.07
2023-04-28T17:29:53.004Z,11.23
2023-04-28T17:32:55.316Z,11.50
2023-04-28T17:35:57.104Z,10.63
2023-04-28T17:38:58.827Z,12.20
2023-04-28T17:42:02.483Z,10.33
2023-04-28T17:45:04.865Z,11.30
2023-04-28T17:48:07.491Z,11.00
2023-04-28T17:51:09.599Z,11.40
2023-04-28T17:54:11.322Z,15.70
2023-04-28T17:57:13.255Z,13.93
2023-04-28T18:00:15.118Z,10.97
2023-04-28T18:03:17.860Z,11.90
2023-04-28T18:06:22.300Z,10.47
2023-04-28T18:10:12.952Z,10.13
2023-04-28T18:13:14.605Z,11.73
2023-04-28T18:16:16.315Z,11.23
2023-04-28T18:19:18.154Z,10.93
2023-04-28T18:22:20.211Z,9.97
2023-04-28T18:25:53.751Z,10.27
2023-04-28T18:28:55.482Z,10.43
2023-04-28T18:31:57.240Z,10.97
2023-04-28T18:34:59.187Z,11.27
2023-04-28T18:38:01.037Z,14.77
2023-04-28T18:41:17.356Z,15.47
2023-04-28T18:44:21.995Z,12.80
2023-04-28T18:47:24.062Z,12.27
2023-04-28T18:50:26.751Z,12.73
2023-04-28T18:53:28.706Z,11.97
2023-04-28T18:56:30.413Z,11.43
2023-04-28T18:59:32.365Z,11.70
2023-04-28T19:02:34.076Z,12.13
2023-04-28T19:05:35.816Z,11.53
2023-04-28T19:08:42.767Z,11.90
2023-04-28T19:11:44.484Z,12.57
2023-04-28T19:14:46.159Z,14.33
2023-04-28T19:17:48.435Z,13.97
2023-04-28T19:20:52.830Z,15.00
2023-04-28T19:23:55.073Z,14.80
2023-04-28T19:26:58.127Z,18.13
2023-04-28T19:30:01.294Z,17.57
2023-04-28T19:33:03.226Z,14.17
2023-04-28T19:36:07.260Z,12.67
2023-04-28T19:39:09.216Z,11.80
2023-04-28T19:42:10.908Z,11.87
2023-04-28T19:45:12.655Z,11.33
2023-04-28T19:48:14.385Z,10.80
2023-04-28T19:51:16.935Z,10.70
2023-04-28T19:54:19.014Z,11.50
2023-04-28T19:57:21.086Z,11.00
2023-04-28T20:00:27.125Z,12.23
2023-04-28T20:03:29.921Z,11.23
2023-04-28T20:06:32.927Z,11.37
2023-04-28T20:09:35.368Z,11.30
2023-04-28T20:12:36.999Z,11.70
2023-04-28T20:15:39.072Z,11.97
2023-04-28T20:18:40.791Z,12.63
2023-04-28T20:21:42.447Z,13.00
2023-04-28T20:24:44.388Z,12.57
2023-04-28T20:27:46.977Z,13.20
2023-04-28T20:30:48.752Z,14.20
2023-04-28T20:33:50.837Z,13.93
2023-04-28T20:36:52.980Z,13.97
2023-04-28T20:39:54.649Z,14.00
2023-04-28T20:42:57.421Z,15.03
2023-04-28T20:45:59.214Z,15.33
2023-04-28T20:49:10.958Z,15.63
2023-04-28T20:52:12.653Z,16.20
2023-04-28T20:55:14.427Z,17.00
2023-04-28T20:58:16.176Z,17.90
2023-04-28T21:01:17.880Z,17.20
2023-04-28T21:04:19.717Z,18.70
2023-04-28T21:07:21.504Z,18.43
2023-04-28T21:10:23.256Z,18.37
2023-04-28T21:13:24.964Z,17.00
2023-04-28T21:16:26.718Z,18.03
2023-04-28T21:19:28.910Z,16.90
2023-04-28T21:22:30.564Z,16.53
2023-04-28T21:25:32.210Z,16.07
2023-04-28T21:28:34.974Z,16.20
2023-04-28T21:31:37.235Z,16.27
2023-04-28T21:34:39.032Z,16.03
2023-04-28T21:37:40.866Z,15.60
2023-04-28T21:40:42.488Z,15.57
2023-04-28T21:43:44.221Z,14.17
2023-04-28T21:46:46.295Z,14.43
2023-04-28T21:49:48.568Z,14.80
2023-04-28T21:53:25.615Z,14.80
2023-04-28T21:56:27.380Z,14.80
2023-04-28T21:59:29.104Z,13.83
2023-04-28T22:02:30.856Z,14.93
2023-04-28T22:05:33.270Z,14.93
2023-04-28T22:08:35.903Z,14.90
2023-04-28T22:11:37.727Z,15.30
2023-04-28T22:14:41.647Z,14.73
2023-04-28T22:17:43.622Z,14.63
2023-04-28T22:20:45.362Z,15.37
2023-04-28T22:23:47.267Z,14.37
2023-04-28T22:26:49.803Z,15.13
2023-04-28T22:29:51.655Z,16.37
2023-04-28T22:32:53.885Z,16.57
2023-04-28T22:35:55.550Z,16.23
2023-04-28T22:38:57.192Z,15.27
2023-04-28T22:41:59.719Z,15.23
2023-04-28T22:45:03.329Z,15.00
2023-04-28T22:48:05.699Z,13.87
2023-04-28T22:51:07.596Z,15.27
2023-04-28T22:54:09.249Z,15.47
2023-04-28T22:57:10.988Z,13.17
2023-04-28T23:00:13.601Z,13.47
2023-04-28T23:03:15.357Z,12.37
2023-04-28T23:06:17.441Z,13.80
2023-04-28T23:09:20.022Z,12.17
2023-04-28T23:12:21.778Z,12.10
2023-04-28T23:15:23.489Z,10.83
2023-04-28T23:18:25.299Z,11.50
2023-04-28T23:21:28.690Z,11.57
2023-04-28T23:24:30.324Z,11.37
2023-04-28T23:27:32.030Z,11.73
2023-04-28T23:30:33.759Z,11.27
2023-04-28T23:33:35.416Z,12.03
2023-04-28T23:36:37.894Z,11.87
2023-04-28T23:39:39.612Z,12.97
2023-04-28T23:42:41.320Z,12.60
2023-04-28T23:45:43.044Z,11.43
2023-04-28T23:48:44.729Z,12.90
2023-04-28T23:51:46.381Z,12.20
2023-04-28T23:54:48.159Z,11.43
2023-04-28T23:57:49.802Z,12.00
